Time;durP1;ratioP1;P1;durP2;ratioP2;P2;SDS_P1;SDS_P2;PMS_P1;PMS_P2;Temp;Humidity;BMP_temperature;BMP_pressure;BME280_temperature;BME280_humidity;BME280_pressure;Samples;Min_cycle;Max_cycle;Signal;HPM_P1;HPM_P2
2021/07/13 00:00:21;;;;;;;19.58;14.82;;;666.10;1945.60;;;;;;5136046;27;20023;-79
2021/07/13 00:02:47;;;;;;;20.83;15.45;;;666.20;1945.60;;;;;;5154311;27;20061;-80
2021/07/13 00:05:18;;;;;;;19.33;13.85;;;666.40;1920.00;;;;;;5135615;27;20058;-80
2021/07/13 00:07:46;;;;;;;22.40;14.80;;;666.30;1920.00;;;;;;5135642;27;20031;-80
2021/07/13 00:10:15;;;;;;;19.33;14.85;;;666.20;1920.00;;;;;;5136081;27;20022;-80
2021/07/13 00:12:41;;;;;;;20.17;14.20;;;666.00;1945.60;;;;;;5135995;27;20022;-79
2021/07/13 00:15:28;;;;;;;22.23;15.02;;;666.00;1945.60;;;;;;5170286;27;20027;-79
2021/07/13 00:17:56;;;;;;;24.25;14.65;;;666.00;1945.60;;;;;;5053169;28;20032;-79
2021/07/13 00:20:22;;;;;;;22.13;15.07;;;666.00;1945.60;;;;;;5053469;28;20105;-79
2021/07/13 00:22:49;;;;;;;16.90;14.45;;;666.00;1920.00;;;;;;5070039;28;20539;-80
2021/07/13 00:25:16;;;;;;;18.88;14.52;;;666.00;1945.60;;;;;;5053099;28;20093;-79
2021/07/13 00:27:42;;;;;;;23.92;15.98;;;666.00;1945.60;;;;;;5052501;28;20055;-78
2021/07/13 00:30:11;;;;;;;18.70;13.82;;;666.00;1945.60;;;;;;5052315;28;20039;-79
2021/07/13 00:32:37;;;;;;;19.75;14.43;;;665.90;1945.60;;;;;;5069081;28;20033;-79
2021/07/13 00:35:03;;;;;;;19.48;14.02;;;665.90;1945.60;;;;;;5052420;28;20108;-80
2021/07/13 00:37:29;;;;;;;23.15;14.18;;;665.80;1945.60;;;;;;5052637;28;20048;-79
2021/07/13 00:39:55;;;;;;;18.85;14.27;;;665.70;1971.20;;;;;;5052512;28;20101;-79
2021/07/13 00:42:21;;;;;;;23.58;14.23;;;665.60;1971.20;;;;;;5052797;28;20043;-79
2021/07/13 00:44:47;;;;;;;21.77;14.90;;;665.60;1971.20;;;;;;5049540;28;20036;-79
2021/07/13 00:47:20;;;;;;;22.60;14.77;;;665.60;1971.20;;;;;;5052931;28;20490;-79
2021/07/13 00:49:47;;;;;;;19.05;14.38;;;640.90;1945.60;;;;;;5051684;28;20035;-79
2021/07/13 00:52:13;;;;;;;22.58;15.07;;;640.90;1945.60;;;;;;5052157;28;20048;-79
2021/07/13 00:54:41;;;;;;;18.27;14.77;;;666.10;1971.20;;;;;;5083605;27;20104;-81
2021/07/13 00:57:09;;;;;;;24.80;15.77;;;665.80;1971.20;;;;;;5135097;27;20027;-79
2021/07/13 00:59:36;;;;;;;16.38;14.60;;;640.90;1971.20;;;;;;5153892;27;20475;-80
2021/07/13 01:02:03;;;;;;;21.75;15.13;;;640.90;1971.20;;;;;;5134424;27;20097;-79
2021/07/13 01:04:29;;;;;;;16.65;14.20;;;640.90;1971.20;;;;;;5135102;27;20075;-79
2021/07/13 01:07:13;;;;;;;20.10;13.82;;;640.90;1971.20;;;;;;5134503;27;20082;-79
2021/07/13 01:10:06;;;;;;;22.15;15.77;;;640.80;1971.20;;;;;;5134432;27;20551;-78
2021/07/13 01:12:46;;;;;;;20.17;14.18;;;640.60;1996.80;;;;;;5134809;27;20071;-78
2021/07/13 01:15:16;;;;;;;23.73;15.80;;;640.60;1971.20;;;;;;5125684;28;20060;-79
2021/07/13 01:17:57;;;;;;;23.55;14.55;;;640.50;1996.80;;;;;;5132715;27;20023;-79
2021/07/13 01:20:57;;;;;;;20.05;14.45;;;640.50;1996.80;;;;;;5153541;27;20034;-78
2021/07/13 01:23:27;;;;;;;25.33;15.50;;;640.50;2022.40;;;;;;5052835;28;20036;-78
2021/07/13 01:26:20;;;;;;;26.38;15.30;;;640.50;1996.80;;;;;;5052468;28;20029;-78
2021/07/13 01:29:00;;;;;;;18.48;15.00;;;640.50;2022.40;;;;;;5052588;28;20026;-78
2021/07/13 01:31:27;;;;;;;18.08;14.52;;;640.50;2022.40;;;;;;5067303;28;20039;-78
2021/07/13 01:34:00;;;;;;;20.55;14.32;;;640.50;2022.40;;;;;;5069190;28;20029;-78
2021/07/13 01:36:39;;;;;;;22.02;15.57;;;640.50;1996.80;;;;;;5069222;28;20049;-79
2021/07/13 01:39:05;;;;;;;23.27;15.90;;;640.40;2022.40;;;;;;5049752;28;20021;-80
2021/07/13 01:41:32;;;;;;;20.60;14.75;;;640.40;2022.40;;;;;;5051432;28;20040;-78
2021/07/13 01:43:59;;;;;;;28.30;16.85;;;640.40;1996.80;;;;;;5052281;28;20044;-78
2021/07/13 01:46:26;;;;;;;22.27;16.13;;;640.20;2022.40;;;;;;5069321;28;20098;-78
2021/07/13 01:48:55;;;;;;;22.63;17.08;;;640.20;2022.40;;;;;;5069211;28;20074;-78
2021/07/13 01:51:23;;;;;;;26.65;17.83;;;640.10;2048.00;;;;;;5052528;28;20055;-79
2021/07/13 01:53:52;;;;;;;19.90;16.90;;;640.00;2099.20;;;;;;5052463;28;20024;-79
2021/07/13 01:56:19;;;;;;;24.38;15.23;;;640.00;2099.20;;;;;;5069104;28;20063;-78
2021/07/13 01:58:46;;;;;;;21.27;16.98;;;640.00;2073.60;;;;;;5059991;28;20421;-79
2021/07/13 02:01:21;;;;;;;30.42;17.30;;;615.30;2073.60;;;;;;5131581;28;20461;-78
2021/07/13 02:03:50;;;;;;;18.50;16.58;;;615.30;2073.60;;;;;;5130774;28;20023;-79
2021/07/13 02:06:18;;;;;;;24.27;17.33;;;615.30;2073.60;;;;;;5111879;28;20026;-80
2021/07/13 02:08:44;;;;;;;20.83;17.58;;;615.30;2073.60;;;;;;5114457;28;20164;-81
2021/07/13 02:11:11;;;;;;;22.85;16.88;;;615.30;2073.60;;;;;;5114785;28;20047;-82
2021/07/13 02:13:37;;;;;;;25.08;17.30;;;615.20;2073.60;;;;;;5114391;28;20024;-82
2021/07/13 02:16:06;;;;;;;21.58;16.85;;;615.10;2099.20;;;;;;5114575;28;20034;-80
2021/07/13 02:18:33;;;;;;;29.30;19.55;;;615.10;2099.20;;;;;;5114569;28;20111;-79
2021/07/13 02:20:59;;;;;;;22.92;17.80;;;615.10;2099.20;;;;;;5114236;28;20035;-82
2021/07/13 02:23:25;;;;;;;21.27;16.92;;;615.00;2099.20;;;;;;5114359;28;20019;-80
2021/07/13 02:25:54;;;;;;;22.35;18.15;;;615.20;2073.60;;;;;;5115259;28;20063;-80
2021/07/13 02:28:38;;;;;;;22.15;17.38;;;615.10;2073.60;;;;;;5114205;28;20046;-80
2021/07/13 02:31:15;;;;;;;22.15;18.33;;;615.00;2099.20;;;;;;5114449;28;20479;-79
2021/07/13 02:33:50;;;;;;;22.63;18.40;;;614.90;2099.20;;;;;;5113902;28;20031;-80
2021/07/13 02:36:20;;;;;;;25.10;18.27;;;615.00;2099.20;;;;;;5114099;28;20027;-82
2021/07/13 02:38:47;;;;;;;27.23;19.52;;;614.90;2099.20;;;;;;5113509;28;20027;-80
2021/07/13 02:41:15;;;;;;;21.17;17.10;;;615.20;2099.20;;;;;;5114000;28;20036;-83
2021/07/13 02:43:42;;;;;;;20.73;18.17;;;614.70;2124.80;;;;;;5113919;28;20050;-80
2021/07/13 02:46:08;;;;;;;22.95;20.52;;;614.60;2124.80;;;;;;5113376;28;20043;-81
2021/07/13 02:48:39;;;;;;;21.90;17.65;;;614.70;2099.20;;;;;;5114405;28;20020;-82
2021/07/13 02:51:07;;;;;;;20.77;16.45;;;614.50;2073.60;;;;;;5113984;28;20031;-81
2021/07/13 02:53:34;;;;;;;22.63;16.10;;;614.50;2073.60;;;;;;5113654;28;20085;-81
2021/07/13 02:56:01;;;;;;;21.33;16.25;;;614.60;2048.00;;;;;;5114195;28;20076;-81
2021/07/13 02:58:28;;;;;;;19.15;16.35;;;614.50;2048.00;;;;;;5113830;28;20126;-82
2021/07/13 03:00:54;;;;;;;19.92;15.68;;;614.50;2048.00;;;;;;5113744;28;20028;-81
2021/07/13 03:03:22;;;;;;;19.92;14.77;;;589.70;2073.60;;;;;;5126589;27;20015;-81
2021/07/13 03:05:50;;;;;;;20.20;14.75;;;589.70;2048.00;;;;;;5134009;27;20468;-81
2021/07/13 03:08:22;;;;;;;21.25;14.88;;;589.60;2048.00;;;;;;5134153;27;20126;-81
2021/07/13 03:10:54;;;;;;;22.05;14.15;;;589.70;2022.40;;;;;;5134358;27;20098;-80
2021/07/13 03:13:24;;;;;;;23.23;15.98;;;589.70;2022.40;;;;;;5127356;27;20092;-83
2021/07/13 03:15:51;;;;;;;16.67;14.77;;;589.60;2022.40;;;;;;5132709;27;20134;-81
2021/07/13 03:18:17;;;;;;;22.58;13.68;;;589.40;2022.40;;;;;;5133189;27;20038;-80
2021/07/13 03:20:47;;;;;;;15.07;13.45;;;589.70;1996.80;;;;;;5133447;27;20049;-80
2021/07/13 03:23:16;;;;;;;16.55;12.65;;;589.60;1996.80;;;;;;5133873;27;20106;-81
2021/07/13 03:25:43;;;;;;;19.48;13.45;;;589.70;1971.20;;;;;;5133480;27;20067;-79
2021/07/13 03:28:11;;;;;;;19.50;14.32;;;589.70;1971.20;;;;;;5134800;27;20030;-80
2021/07/13 03:30:37;;;;;;;20.10;14.50;;;589.70;1971.20;;;;;;5133577;27;20031;-80
2021/07/13 03:33:04;;;;;;;18.70;13.50;;;589.60;1971.20;;;;;;5133461;27;20023;-81
2021/07/13 03:35:31;;;;;;;15.20;13.15;;;589.60;1996.80;;;;;;5133221;27;20095;-80
2021/07/13 03:37:58;;;;;;;18.95;12.90;;;589.60;1996.80;;;;;;5133237;27;20046;-80
2021/07/13 03:40:25;;;;;;;19.45;12.93;;;589.50;1971.20;;;;;;5133566;27;20056;-80
2021/07/13 03:42:52;;;;;;;18.55;13.32;;;589.50;1996.80;;;;;;5133199;27;20137;-80
2021/07/13 03:45:19;;;;;;;19.83;13.60;;;589.60;1971.20;;;;;;5132731;27;20053;-80
2021/07/13 03:47:48;;;;;;;16.35;13.07;;;589.50;1971.20;;;;;;5133203;27;20027;-80
2021/07/13 03:50:24;;;;;;;18.48;12.60;;;589.50;1971.20;;;;;;5133319;27;20068;-80
2021/07/13 03:52:50;;;;;;;21.13;12.70;;;589.50;1971.20;;;;;;5133292;27;20488;-81
2021/07/13 03:55:16;;;;;;;17.10;12.15;;;589.50;1971.20;;;;;;5133095;27;20030;-80
2021/07/13 03:57:42;;;;;;;16.10;12.15;;;589.60;1971.20;;;;;;5132931;27;20020;-80
2021/07/13 04:00:14;;;;;;;14.30;11.93;;;589.60;1971.20;;;;;;5132769;27;20031;-80
2021/07/13 04:02:41;;;;;;;17.42;12.07;;;589.70;1945.60;;;;;;5132453;27;20026;-80
2021/07/13 04:05:08;;;;;;;14.95;13.23;;;614.50;1920.00;;;;;;5132814;27;20114;-80
2021/07/13 04:07:34;;;;;;;20.17;12.43;;;614.50;1920.00;;;;;;5131622;27;20038;-80
2021/07/13 04:09:59;;;;;;;14.95;12.52;;;614.50;1920.00;;;;;;5132696;27;20108;-80
2021/07/13 04:12:25;;;;;;;15.45;11.50;;;614.60;1920.00;;;;;;5132346;27;20023;-79
2021/07/13 04:14:51;;;;;;;17.77;12.43;;;614.60;1920.00;;;;;;5133816;27;20038;-80
2021/07/13 04:17:17;;;;;;;32.45;12.65;;;614.70;1920.00;;;;;;5132431;27;20039;-79
2021/07/13 04:19:43;;;;;;;13.75;11.35;;;614.70;1920.00;;;;;;5131913;27;20031;-78
2021/07/13 04:22:08;;;;;;;20.00;12.07;;;614.70;1920.00;;;;;;5132050;27;20035;-79
2021/07/13 04:24:34;;;;;;;14.77;11.95;;;614.70;1920.00;;;;;;5132405;27;20030;-79
2021/07/13 04:27:00;;;;;;;21.70;11.95;;;614.80;1920.00;;;;;;5133264;27;20031;-79
2021/07/13 04:29:25;;;;;;;23.85;11.52;;;614.80;1920.00;;;;;;5131248;27;20031;-79
2021/07/13 04:31:51;;;;;;;17.40;13.15;;;614.80;1920.00;;;;;;5132003;27;20031;-78
2021/07/13 04:34:17;;;;;;;15.52;12.40;;;614.90;1920.00;;;;;;5131630;27;20114;-78
2021/07/13 04:36:42;;;;;;;17.92;10.85;;;614.80;1920.00;;;;;;5132165;27;20757;-80
2021/07/13 04:39:09;;;;;;;21.48;11.57;;;614.90;1920.00;;;;;;5131658;27;20034;-78
2021/07/13 04:41:35;;;;;;;15.38;11.57;;;615.00;1894.40;;;;;;5131773;27;20035;-78
2021/07/13 04:44:02;;;;;;;20.25;10.80;;;615.10;1894.40;;;;;;5131328;27;20051;-78
2021/07/13 04:46:28;;;;;;;13.95;11.13;;;615.20;1868.80;;;;;;5131763;27;20083;-78
2021/07/13 04:48:55;;;;;;;21.27;11.35;;;615.30;1868.80;;;;;;5131664;27;20023;-78
2021/07/13 04:51:22;;;;;;;16.70;11.18;;;640.00;1868.80;;;;;;5131905;27;20384;-78
2021/07/13 04:53:48;;;;;;;23.30;13.73;;;640.10;1843.20;;;;;;5130997;28;20031;-78
2021/07/13 04:56:14;;;;;;;15.48;10.13;;;640.20;1843.20;;;;;;5132956;27;20023;-78
2021/07/13 04:58:40;;;;;;;17.95;10.32;;;640.20;1792.00;;;;;;5133112;28;20464;-78
2021/07/13 05:01:05;;;;;;;16.00;10.80;;;640.20;1792.00;;;;;;5130910;28;20043;-78
2021/07/13 05:03:31;;;;;;;13.52;10.38;;;640.30;1766.40;;;;;;5133014;27;20027;-78
2021/07/13 05:05:57;;;;;;;13.07;9.35;;;640.30;1740.80;;;;;;5113230;28;20020;-79
2021/07/13 05:08:22;;;;;;;15.75;10.27;;;640.40;1740.80;;;;;;5110967;28;20028;-79
2021/07/13 05:10:49;;;;;;;10.88;8.55;;;640.50;1715.20;;;;;;5127941;28;20024;-78
2021/07/13 05:13:15;;;;;;;13.32;8.85;;;640.50;1715.20;;;;;;5111087;28;20043;-78
2021/07/13 05:15:41;;;;;;;12.07;9.15;;;640.60;1740.80;;;;;;5110565;28;20050;-78
2021/07/13 05:18:11;;;;;;;15.60;8.55;;;640.80;1689.60;;;;;;5110898;28;20028;-78
2021/07/13 05:20:43;;;;;;;13.88;8.85;;;640.90;1689.60;;;;;;5110614;28;20030;-78
2021/07/13 05:23:09;;;;;;;17.92;8.73;;;640.90;1664.00;;;;;;5110436;28;20477;-77
2021/07/13 05:25:37;;;;;;;12.68;8.73;;;640.60;1664.00;;;;;;5110890;28;20039;-78
2021/07/13 05:28:04;;;;;;;18.52;9.00;;;665.70;1664.00;;;;;;5111725;28;20024;-76
2021/07/13 05:30:30;;;;;;;13.18;9.32;;;665.70;1638.40;;;;;;5117036;28;20092;-84
2021/07/13 05:32:56;;;;;;;15.68;9.07;;;665.70;1664.00;;;;;;5132768;27;20426;-78
2021/07/13 05:35:23;;;;;;;11.90;9.05;;;665.80;1664.00;;;;;;5130841;28;20015;-78
2021/07/13 05:37:49;;;;;;;15.98;8.60;;;665.80;1638.40;;;;;;5132064;27;20072;-79
2021/07/13 05:40:15;;;;;;;15.50;9.15;;;665.70;1638.40;;;;;;5132868;27;20484;-78
2021/07/13 05:42:42;;;;;;;14.85;8.85;;;665.80;1638.40;;;;;;5135123;27;20027;-79
2021/07/13 05:45:09;;;;;;;12.02;8.68;;;665.90;1638.40;;;;;;5134090;27;20535;-79
2021/07/13 05:47:34;;;;;;;17.00;8.68;;;666.00;1612.80;;;;;;5135307;27;20368;-79
2021/07/13 05:50:00;;;;;;;15.45;8.55;;;666.20;1638.40;;;;;;5134759;27;20056;-79
2021/07/13 05:52:26;;;;;;;15.18;8.13;;;666.30;1638.40;;;;;;5136477;27;20111;-78
2021/07/13 05:54:52;;;;;;;16.63;8.88;;;691.20;1587.20;;;;;;5134653;27;20396;-79
2021/07/13 05:57:18;;;;;;;11.30;7.82;;;691.20;1587.20;;;;;;5135076;27;20069;-78
2021/07/13 05:59:44;;;;;;;12.52;7.55;;;666.50;1587.20;;;;;;5134813;27;20473;-79
2021/07/13 06:02:10;;;;;;;12.40;7.35;;;691.20;1587.20;;;;;;5134975;27;20058;-78
2021/07/13 06:04:35;;;;;;;10.20;7.68;;;691.20;1612.80;;;;;;5133866;27;20431;-79
2021/07/13 06:07:01;;;;;;;13.63;8.68;;;691.30;1587.20;;;;;;5135209;27;20164;-78
2021/07/13 06:09:28;;;;;;;14.38;9.05;;;691.40;1587.20;;;;;;5134687;27;20102;-79
2021/07/13 06:11:57;;;;;;;9.55;7.75;;;691.50;1561.60;;;;;;5134931;27;20023;-81
2021/07/13 06:14:24;;;;;;;10.52;8.32;;;691.70;1561.60;;;;;;5136294;27;20063;-80
2021/07/13 06:16:50;;;;;;;18.63;8.70;;;691.80;1536.00;;;;;;5135543;27;20032;-78
2021/07/13 06:19:16;;;;;;;13.60;7.82;;;691.80;1536.00;;;;;;5134612;27;20156;-78
2021/07/13 06:21:43;;;;;;;12.77;8.73;;;692.10;1536.00;;;;;;5134891;27;20101;-78
2021/07/13 06:24:08;;;;;;;11.98;8.65;;;716.80;1536.00;;;;;;5135685;27;20023;-79
2021/07/13 06:26:34;;;;;;;9.63;7.88;;;717.00;1510.40;;;;;;5135422;27;20029;-79
2021/07/13 06:29:00;;;;;;;15.52;7.68;;;717.10;1484.80;;;;;;5169254;27;20353;-79
2021/07/13 06:31:26;;;;;;;12.15;7.53;;;717.00;1484.80;;;;;;5134375;27;20015;-79
2021/07/13 06:33:52;;;;;;;12.25;7.35;;;717.10;1484.80;;;;;;5135229;27;20380;-79
2021/07/13 06:36:17;;;;;;;11.63;8.18;;;717.30;1484.80;;;;;;5168078;27;20446;-78
2021/07/13 06:38:43;;;;;;;9.43;7.88;;;717.40;1459.20;;;;;;5167911;27;20035;-78
2021/07/13 06:41:09;;;;;;;10.20;7.32;;;717.50;1433.60;;;;;;5134154;27;20038;-78
2021/07/13 06:43:35;;;;;;;17.30;7.40;;;717.50;1408.00;;;;;;5168360;27;20035;-78
2021/07/13 06:46:01;;;;;;;11.32;7.28;;;717.60;1408.00;;;;;;5134062;27;20035;-79
2021/07/13 06:48:27;;;;;;;11.95;7.18;;;717.70;1408.00;;;;;;5133813;27;20046;-79
2021/07/13 06:50:53;;;;;;;13.15;7.25;;;742.40;1433.60;;;;;;5168531;27;20054;-80
2021/07/13 06:53:19;;;;;;;11.98;7.28;;;742.60;1433.60;;;;;;5133179;27;20026;-78
2021/07/13 06:55:46;;;;;;;13.00;7.70;;;742.60;1408.00;;;;;;5134206;27;20023;-80
2021/07/13 06:58:12;;;;;;;13.48;7.03;;;742.80;1408.00;;;;;;5133773;27;20011;-80
2021/07/13 07:00:37;;;;;;;11.43;7.32;;;742.90;1408.00;;;;;;5133774;27;20034;-80
2021/07/13 07:03:03;;;;;;;14.27;7.80;;;742.90;1382.40;;;;;;5134146;27;20077;-81
2021/07/13 07:05:29;;;;;;;9.73;7.03;;;743.00;1382.40;;;;;;5133088;27;20072;-78
2021/07/13 07:07:55;;;;;;;13.77;7.07;;;743.00;1382.40;;;;;;5134607;27;20038;-80
2021/07/13 07:10:21;;;;;;;15.10;7.10;;;743.30;1356.80;;;;;;5132837;27;20087;-81
2021/07/13 07:12:49;;;;;;;7.60;6.25;;;743.30;1356.80;;;;;;5133183;27;20019;-81
2021/07/13 07:15:17;;;;;;;10.07;7.10;;;768.10;1356.80;;;;;;5130571;27;20476;-81
2021/07/13 07:17:46;;;;;;;13.30;6.97;;;743.30;1331.20;;;;;;5133115;27;20083;-80
2021/07/13 07:20:13;;;;;;;10.93;7.07;;;768.40;1356.80;;;;;;5133094;27;20023;-79
2021/07/13 07:22:39;;;;;;;11.95;7.20;;;768.50;1331.20;;;;;;5132617;27;20031;-80
2021/07/13 07:25:06;;;;;;;8.38;6.53;;;768.60;1331.20;;;;;;5133941;27;20062;-78
2021/07/13 07:27:31;;;;;;;11.82;7.63;;;768.90;1305.60;;;;;;5133963;27;20072;-77
2021/07/13 07:29:57;;;;;;;9.93;7.03;;;793.60;1331.20;;;;;;5133691;27;20076;-85
2021/07/13 07:32:23;;;;;;;13.18;6.95;;;793.80;1305.60;;;;;;5134357;27;20015;-81
2021/07/13 07:34:48;;;;;;;12.40;7.75;;;793.80;1331.20;;;;;;5132871;27;20472;-82
2021/07/13 07:37:14;;;;;;;9.20;6.47;;;793.80;1280.00;;;;;;5133358;27;20069;-83
2021/07/13 07:39:41;;;;;;;10.43;7.75;;;793.90;1280.00;;;;;;5133498;27;20414;-81
2021/07/13 07:42:07;;;;;;;10.50;7.00;;;793.90;1280.00;;;;;;5134239;27;20035;-78
2021/07/13 07:44:33;;;;;;;10.38;6.78;;;794.20;1254.40;;;;;;5132777;27;20119;-78
2021/07/13 07:46:59;;;;;;;9.43;6.90;;;794.40;1254.40;;;;;;5131060;27;20051;-77
2021/07/13 07:49:25;;;;;;;11.65;7.35;;;794.50;1228.80;;;;;;5133618;27;20469;-81
2021/07/13 07:51:51;;;;;;;10.00;6.72;;;819.30;1228.80;;;;;;5132176;27;20098;-80
2021/07/13 07:54:17;;;;;;;8.70;7.32;;;819.30;1203.20;;;;;;5131089;27;20122;-78
2021/07/13 07:56:43;;;;;;;8.13;6.55;;;819.30;1203.20;;;;;;5133485;27;20087;-80
2021/07/13 07:59:09;;;;;;;12.30;6.78;;;819.40;1203.20;;;;;;5132105;27;20023;-80
2021/07/13 08:01:34;;;;;;;13.57;6.97;;;819.60;1203.20;;;;;;5132154;27;20034;-85
2021/07/13 08:04:00;;;;;;;10.20;7.07;;;819.70;1177.60;;;;;;5130799;27;20384;-78
2021/07/13 08:06:26;;;;;;;11.43;6.40;;;819.80;1177.60;;;;;;5131049;27;20404;-83
2021/07/13 08:08:52;;;;;;;8.70;6.80;;;820.00;1177.60;;;;;;5132078;27;20065;-78
2021/07/13 08:11:17;;;;;;;10.57;7.55;;;820.10;1203.20;;;;;;5132157;27;20038;-80
2021/07/13 08:13:43;;;;;;;9.48;7.32;;;820.10;1177.60;;;;;;5131799;27;20556;-80
2021/07/13 08:16:09;;;;;;;13.93;6.72;;;820.10;1177.60;;;;;;5132048;27;20126;-80
2021/07/13 08:18:35;;;;;;;13.48;7.05;;;820.10;1152.00;;;;;;5131519;27;20019;-81
2021/07/13 08:21:01;;;;;;;11.52;7.72;;;820.10;1177.60;;;;;;5131909;27;20080;-81
2021/07/13 08:23:29;;;;;;;12.95;7.60;;;820.10;1177.60;;;;;;5132400;27;20087;-82
2021/07/13 08:25:55;;;;;;;11.10;7.07;;;820.10;1177.60;;;;;;5131536;27;20675;-80
2021/07/13 08:28:21;;;;;;;9.25;7.65;;;820.10;1177.60;;;;;;5132865;27;20027;-81
2021/07/13 08:30:47;;;;;;;9.15;7.50;;;844.80;1203.20;;;;;;5131678;27;20031;-83
2021/07/13 08:33:12;;;;;;;9.73;6.93;;;845.00;1203.20;;;;;;5133042;27;20019;-80
2021/07/13 08:35:38;;;;;;;13.43;7.57;;;845.10;1203.20;;;;;;5132274;27;20027;-80
2021/07/13 08:38:04;;;;;;;9.50;7.32;;;845.00;1203.20;;;;;;5132045;27;20019;-80
2021/07/13 08:40:32;;;;;;;9.27;7.32;;;845.20;1203.20;;;;;;5131975;27;20384;-80
2021/07/13 08:42:58;;;;;;;12.10;7.43;;;845.10;1177.60;;;;;;5131935;27;20030;-83
2021/07/13 08:45:24;;;;;;;16.98;8.15;;;845.20;1177.60;;;;;;5131356;27;20058;-78
2021/07/13 08:47:51;;;;;;;10.25;7.53;;;845.30;1203.20;;;;;;5131238;27;20473;-78
2021/07/13 08:50:19;;;;;;;8.50;6.90;;;845.40;1177.60;;;;;;5131536;27;20019;-79
2021/07/13 08:52:45;;;;;;;13.98;7.88;;;845.60;1177.60;;;;;;5126993;27;20011;-81
2021/07/13 08:55:11;;;;;;;11.45;7.40;;;845.40;1177.60;;;;;;5131908;27;20033;-78
2021/07/13 08:57:42;;;;;;;9.80;7.65;;;845.60;1152.00;;;;;;5131511;28;20062;-78
2021/07/13 09:00:10;;;;;;;9.90;7.15;;;845.60;1152.00;;;;;;5133053;27;20027;-78
2021/07/13 09:02:36;;;;;;;10.55;7.15;;;845.60;1152.00;;;;;;5131310;28;20567;-76
2021/07/13 09:05:02;;;;;;;9.40;8.13;;;845.70;1177.60;;;;;;5131348;28;20035;-80
2021/07/13 09:07:32;;;;;;;17.13;7.65;;;870.40;1126.40;;;;;;5131067;28;20039;-77
2021/07/13 09:10:05;;;;;;;10.63;8.35;;;870.40;1152.00;;;;;;5132687;27;20027;-78
2021/07/13 09:12:31;;;;;;;12.43;6.97;;;870.40;1152.00;;;;;;5132926;27;20031;-80
2021/07/13 09:15:04;;;;;;;10.02;7.30;;;870.40;1152.00;;;;;;5133562;27;20030;-78
2021/07/13 09:17:43;;;;;;;13.18;8.27;;;870.50;1126.40;;;;;;5135848;27;20037;-88
2021/07/13 09:20:12;;;;;;;11.43;7.53;;;870.50;1152.00;;;;;;5137227;27;20023;-79
2021/07/13 09:22:52;;;;;;;9.15;6.75;;;870.70;1126.40;;;;;;5135663;27;20039;-77
2021/07/13 09:25:31;;;;;;;17.88;7.97;;;870.80;1126.40;;;;;;5136310;27;20027;-78
2021/07/13 09:28:06;;;;;;;9.30;7.18;;;870.90;1126.40;;;;;;5133698;27;20031;-80
2021/07/13 09:30:32;;;;;;;12.25;7.38;;;871.00;1100.80;;;;;;5116384;28;20473;-80
2021/07/13 09:33:10;;;;;;;12.25;8.07;;;870.90;1100.80;;;;;;5116571;28;20051;-79
2021/07/13 09:35:37;;;;;;;16.27;7.30;;;870.90;1100.80;;;;;;5116299;28;20031;-80
2021/07/13 09:38:03;;;;;;;13.50;7.20;;;870.90;1100.80;;;;;;5114950;28;20027;-79
2021/07/13 09:40:36;;;;;;;10.68;7.75;;;871.10;1100.80;;;;;;5115933;28;20035;-76
2021/07/13 09:43:02;;;;;;;13.30;8.10;;;871.10;1100.80;;;;;;5114595;28;20028;-78
2021/07/13 09:45:31;;;;;;;12.45;7.78;;;871.10;1075.20;;;;;;5129742;27;20384;-81
2021/07/13 09:48:17;;;;;;;13.68;8.63;;;871.10;1049.60;;;;;;5134872;27;20072;-81
2021/07/13 09:50:49;;;;;;;10.75;7.82;;;871.30;1075.20;;;;;;5134549;27;20027;-78
2021/07/13 09:53:22;;;;;;;10.02;8.32;;;896.00;1100.80;;;;;;5134820;27;20023;-80
2021/07/13 09:55:49;;;;;;;15.38;7.97;;;896.20;1075.20;;;;;;5134087;27;20290;-79
2021/07/13 09:58:15;;;;;;;8.90;8.00;;;896.00;1075.20;;;;;;5134797;27;20031;-80
2021/07/13 10:00:42;;;;;;;12.13;7.57;;;896.40;1075.20;;;;;;5135773;27;20095;-80
2021/07/13 10:03:14;;;;;;;14.68;7.97;;;896.70;1075.20;;;;;;5134357;27;20050;-79
2021/07/13 10:05:42;;;;;;;12.77;8.05;;;896.70;1049.60;;;;;;5133125;27;20094;-80
2021/07/13 10:08:10;;;;;;;16.92;8.98;;;896.50;1049.60;;;;;;5135412;27;20279;-79
2021/07/13 10:10:38;;;;;;;12.23;8.52;;;896.40;1049.60;;;;;;5135574;27;20019;-79
2021/07/13 10:13:05;;;;;;;13.15;8.45;;;896.50;1024.00;;;;;;5134257;27;20030;-80
2021/07/13 10:15:34;;;;;;;9.52;8.05;;;896.80;1024.00;;;;;;5135797;27;20019;-80
2021/07/13 10:18:03;;;;;;;13.18;9.05;;;896.90;1049.60;;;;;;5132234;27;20034;-80
2021/07/13 10:20:30;;;;;;;14.50;10.35;;;921.80;1024.00;;;;;;5135797;27;20030;-90
2021/07/13 10:22:57;;;;;;;13.40;10.52;;;921.60;1049.60;;;;;;5135235;27;20084;-88
2021/07/13 10:25:36;;;;;;;12.82;9.32;;;921.80;1075.20;;;;;;5135279;27;20090;-79
2021/07/13 10:28:03;;;;;;;14.80;10.10;;;922.10;972.80;;;;;;5130857;27;20110;-80
2021/07/13 10:30:29;;;;;;;15.88;12.23;;;922.00;972.80;;;;;;5135319;27;20015;-82
2021/07/13 10:32:55;;;;;;;16.67;11.80;;;922.00;972.80;;;;;;5135381;27;20422;-80
2021/07/13 10:35:24;;;;;;;19.13;10.20;;;922.10;972.80;;;;;;5134963;27;20388;-80
2021/07/13 10:38:00;;;;;;;12.98;10.20;;;922.30;972.80;;;;;;5134004;27;20410;-80
2021/07/13 10:40:26;;;;;;;20.42;16.58;;;922.20;972.80;;;;;;5132665;27;20034;-89
2021/07/13 10:42:59;;;;;;;13.40;10.00;;;922.30;972.80;;;;;;5134219;27;20039;-81
2021/07/13 10:45:29;;;;;;;14.15;8.13;;;922.10;947.20;;;;;;5133326;27;20039;-78
2021/07/13 10:48:03;;;;;;;15.30;8.65;;;922.10;972.80;;;;;;5130433;27;20027;-79
2021/07/13 10:50:29;;;;;;;13.13;10.60;;;922.50;972.80;;;;;;5134939;27;20099;-80
2021/07/13 10:52:58;;;;;;;17.75;8.38;;;922.50;972.80;;;;;;5134911;27;20156;-81
2021/07/13 10:55:30;;;;;;;15.02;8.70;;;947.20;998.40;;;;;;5134046;27;20029;-79
2021/07/13 10:58:14;;;;;;;11.50;8.35;;;947.30;921.60;;;;;;5135181;27;20023;-80
2021/07/13 11:00:58;;;;;;;15.55;9.32;;;947.50;921.60;;;;;;5133094;27;20392;-80
2021/07/13 11:03:30;;;;;;;14.65;8.57;;;947.40;947.20;;;;;;5133013;27;20032;-86
2021/07/13 11:05:59;;;;;;;13.98;8.10;;;947.50;947.20;;;;;;5133365;27;20040;-79
2021/07/13 11:09:00;;;;;;;13.00;8.13;;;947.70;921.60;;;;;;5134856;27;20019;-79
2021/07/13 11:11:28;;;;;;;15.25;7.93;;;947.70;870.40;;;;;;5134199;27;20075;-83
2021/07/13 11:13:57;;;;;;;11.15;7.72;;;947.30;921.60;;;;;;5134222;27;20024;-84
2021/07/13 11:16:31;;;;;;;13.30;8.13;;;947.30;896.00;;;;;;5130811;27;20189;-84
2021/07/13 11:18:58;;;;;;;14.45;9.18;;;947.30;870.40;;;;;;5133429;27;20016;-79
2021/07/13 11:21:32;;;;;;;11.88;8.15;;;947.30;896.00;;;;;;5134818;27;20042;-79
2021/07/13 11:24:19;;;;;;;15.20;8.57;;;947.70;896.00;;;;;;5133319;27;20023;-81
2021/07/13 11:26:50;;;;;;;9.27;8.18;;;947.80;896.00;;;;;;5132716;27;20031;-85
2021/07/13 11:29:34;;;;;;;10.55;9.25;;;947.20;870.40;;;;;;5133271;27;20034;-79
2021/07/13 11:32:03;;;;;;;11.93;8.73;;;947.50;870.40;;;;;;5133951;27;20076;-79
2021/07/13 11:34:37;;;;;;;19.25;8.65;;;947.80;896.00;;;;;;5134210;27;20271;-80
2021/07/13 11:37:04;;;;;;;16.92;8.38;;;948.00;870.40;;;;;;5132807;27;20030;-80
2021/07/13 11:39:33;;;;;;;10.48;8.15;;;948.10;896.00;;;;;;5123575;27;20008;-82
2021/07/13 11:42:07;;;;;;;14.27;8.50;;;948.00;870.40;;;;;;5118989;27;20030;-80
2021/07/13 11:44:34;;;;;;;12.53;8.23;;;947.90;896.00;;;;;;5145583;27;20175;-79
2021/07/13 11:47:00;;;;;;;11.75;7.85;;;948.10;896.00;;;;;;5134975;27;20042;-79
2021/07/13 11:49:28;;;;;;;13.18;8.77;;;973.00;896.00;;;;;;5134373;27;20014;-79
2021/07/13 11:52:05;;;;;;;12.02;8.38;;;972.80;896.00;;;;;;5135790;27;20093;-79
2021/07/13 11:54:39;;;;;;;15.98;8.68;;;973.00;921.60;;;;;;5152761;27;20011;-84
2021/07/13 11:57:09;;;;;;;9.88;8.15;;;973.20;896.00;;;;;;5133833;27;20049;-81
2021/07/13 11:59:37;;;;;;;15.40;8.65;;;948.10;896.00;;;;;;5136057;27;20022;-78
2021/07/13 12:02:08;;;;;;;11.43;8.95;;;948.10;896.00;;;;;;5137660;27;20031;-79
2021/07/13 12:04:42;;;;;;;12.13;8.15;;;948.10;870.40;;;;;;5147309;27;20089;-79
2021/07/13 12:07:08;;;;;;;11.20;8.73;;;973.20;921.60;;;;;;5146768;27;20030;-80
2021/07/13 12:09:36;;;;;;;11.30;8.68;;;973.20;921.60;;;;;;5129104;27;20071;-82
2021/07/13 12:12:08;;;;;;;13.52;7.88;;;973.30;896.00;;;;;;5129199;27;20042;-80